General Aviation Weather

Text Reports

Enter one or more of the following location identifiers separated by a space:

Zip Code, Four-Character ICAO or Three-Character IATA airport codes.

METAR - Aviation Routine Weather Report
KPTS - Pittsburg, Kansas
Updated at 1:55 AM GMT on February 13, 2016 (7:55 PM CST):
METAR KPTS 130155Z AUTO 36005KT 10SM SCT120 02/M06 A3048 RMK AO2 T00201058
TAF - Terminal Area Forecast
KPTS - Pittsburg, Kansas
Updated at 1:55 AM GMT on February 13, 2016 (7:55 PM CST):
No TAF is currently available for this location.
Decoded:
No decoded TAF is available.
PIREP - Pilot Weather Report
KPTS - Pittsburg, Kansas
Updated at 1:55 AM GMT on February 13, 2016 (7:55 PM CST):
No PIREP is currently available for this location.
AIRMET - Airmens Meteorological Information
KPTS - Pittsburg, Kansas
Updated at 1:55 AM GMT on February 13, 2016 (7:55 PM CST):
No AIRMET is currently available for this location.
SIGMET - Significant Meteorological Information
KPTS - Pittsburg, Kansas
Updated at 1:55 AM GMT on February 13, 2016 (7:55 PM CST):
No SIGMET is currently available for this location.
NOTAM - Notice to Airmen
KPTS - Pittsburg, Kansas
Updated at 1:55 AM GMT on February 13, 2016 (7:55 PM CST):
No NOTAM is currently available for this location.
Forecast Area
KPTS - Pittsburg, Kansas
Updated at 1:55 AM GMT on February 13, 2016 (7:55 PM CST):
No NOTAM is currently available for this location.
Aviation Weather Maps